Time;durP1;ratioP1;P1;durP2;ratioP2;P2;SDS_P1;SDS_P2;PMS_P1;PMS_P2;Temp;Humidity;BMP_temperature;BMP_pressure;BME280_temperature;BME280_humidity;BME280_pressure;Samples;Min_cycle;Max_cycle;Signal;HPM_P1;HPM_P2
2021/04/25 00:30:17;;;;;;;2.97;2.30;;;7.30;99.90;;;;;;6174253;22;743662;-68
2021/04/25 00:32:44;;;;;;;2.90;2.27;;;7.40;99.90;;;;;;6099223;23;20171;-69
2021/04/25 00:35:11;;;;;;;2.30;2.10;;;7.40;99.90;;;;;;6099608;23;20506;-69
2021/04/25 00:37:37;;;;;;;4.87;2.50;;;7.40;99.90;;;;;;6098688;23;20419;-70
2021/04/25 00:40:06;;;;;;;3.37;2.30;;;7.50;99.90;;;;;;6096274;23;20445;-67
2021/04/25 00:42:32;;;;;;;2.40;2.20;;;7.50;99.90;;;;;;6097773;23;20462;-66
2021/04/25 00:44:59;;;;;;;6.70;2.60;;;7.50;99.90;;;;;;6098999;23;20415;-67
2021/04/25 00:47:26;;;;;;;3.00;2.73;;;7.50;99.90;;;;;;6096582;23;20415;-66
2021/04/25 00:49:52;;;;;;;3.03;2.00;;;7.60;99.90;;;;;;6088882;23;63708;-65
2021/04/25 00:52:20;;;;;;;3.23;2.20;;;7.60;99.90;;;;;;6100479;23;20427;-66
2021/04/25 00:54:53;;;;;;;4.10;2.47;;;7.60;99.90;;;;;;6102411;23;20450;-67
2021/04/25 00:57:21;;;;;;;3.37;2.13;;;7.60;99.90;;;;;;6103356;23;20407;-66
2021/04/25 00:59:48;;;;;;;3.13;2.30;;;7.60;99.90;;;;;;6101152;23;20957;-66
2021/04/25 01:02:14;;;;;;;2.30;2.10;;;7.60;99.90;;;;;;6101392;23;20706;-67
2021/04/25 01:04:41;;;;;;;2.00;1.80;;;7.60;99.90;;;;;;6101084;23;20423;-67
2021/04/25 01:07:07;;;;;;;3.60;2.17;;;7.60;99.90;;;;;;6101079;23;20536;-66
2021/04/25 01:09:33;;;;;;;2.53;2.00;;;7.60;99.90;;;;;;6101104;23;20514;-66
2021/04/25 01:12:00;;;;;;;2.90;2.37;;;7.60;99.90;;;;;;6100735;23;20510;-67
2021/04/25 01:14:26;;;;;;;2.67;2.10;;;7.50;99.90;;;;;;6100647;23;20430;-66
2021/04/25 01:16:53;;;;;;;2.83;1.90;;;7.60;99.90;;;;;;6101174;23;20502;-67
2021/04/25 01:19:19;;;;;;;2.97;2.20;;;7.60;99.90;;;;;;6100913;23;20415;-66
2021/04/25 01:21:46;;;;;;;2.07;1.70;;;7.50;99.90;;;;;;6100604;23;20899;-66
2021/04/25 01:24:13;;;;;;;2.77;2.50;;;7.50;99.90;;;;;;6100663;23;20438;-66
2021/04/25 01:26:39;;;;;;;3.20;1.97;;;7.50;99.90;;;;;;6100893;23;20490;-66
2021/04/25 01:29:05;;;;;;;1.70;1.20;;;7.50;99.90;;;;;;6099746;23;20442;-66
2021/04/25 01:31:34;;;;;;;3.43;1.90;;;7.50;99.90;;;;;;6082802;23;20456;-66
2021/04/25 01:34:00;;;;;;;2.30;2.03;;;7.50;99.90;;;;;;6072016;23;20448;-65
2021/04/25 01:36:27;;;;;;;2.20;1.80;;;7.50;99.90;;;;;;6081238;23;20430;-67
2021/04/25 01:38:54;;;;;;;4.53;1.90;;;7.50;99.90;;;;;;6071899;23;20423;-66
2021/04/25 01:41:20;;;;;;;3.23;2.10;;;7.50;99.90;;;;;;6072158;23;20424;-66
2021/04/25 01:43:47;;;;;;;2.80;2.00;;;7.50;99.90;;;;;;6071996;23;20499;-67
2021/04/25 01:46:16;;;;;;;4.90;1.80;;;7.50;99.90;;;;;;6072487;23;20416;-66
2021/04/25 01:48:43;;;;;;;2.77;2.13;;;7.50;99.90;;;;;;6072242;23;20432;-68
2021/04/25 01:51:09;;;;;;;3.80;1.93;;;7.50;99.90;;;;;;6071909;23;20420;-67
2021/04/25 01:53:37;;;;;;;4.83;2.00;;;7.50;99.90;;;;;;6071895;23;20511;-67
2021/04/25 01:56:06;;;;;;;4.77;1.97;;;7.50;99.90;;;;;;6072027;23;20420;-67
2021/04/25 01:58:32;;;;;;;1.93;1.53;;;7.50;99.90;;;;;;6071953;23;20460;-67
2021/04/25 02:00:58;;;;;;;2.80;1.60;;;7.60;99.90;;;;;;6071953;23;20451;-67
2021/04/25 02:03:26;;;;;;;2.10;1.70;;;7.60;99.90;;;;;;6071386;23;20412;-68
2021/04/25 02:05:52;;;;;;;3.83;2.00;;;7.60;99.90;;;;;;6072026;23;20452;-67
2021/04/25 02:08:19;;;;;;;2.17;1.57;;;7.60;99.90;;;;;;6072191;23;20432;-66
2021/04/25 02:10:46;;;;;;;3.40;1.97;;;7.70;99.90;;;;;;6071380;23;20416;-66
2021/04/25 02:13:13;;;;;;;2.63;1.90;;;7.70;99.90;;;;;;6071970;23;20444;-67
2021/04/25 02:15:40;;;;;;;2.40;1.73;;;7.70;99.90;;;;;;6071946;23;20431;-67
2021/04/25 02:18:06;;;;;;;3.20;1.80;;;7.70;99.90;;;;;;6071894;23;20421;-66
2021/04/25 02:20:34;;;;;;;3.87;2.10;;;7.70;99.90;;;;;;6072051;23;20420;-66
2021/04/25 02:23:00;;;;;;;2.00;1.73;;;7.70;99.90;;;;;;6071779;23;20416;-66
2021/04/25 02:25:27;;;;;;;4.57;1.97;;;7.70;99.90;;;;;;6072135;23;20429;-66
2021/04/25 02:27:54;;;;;;;5.63;1.90;;;7.70;99.90;;;;;;6071703;23;20430;-67
2021/04/25 02:30:23;;;;;;;2.30;1.90;;;7.70;99.90;;;;;;6071669;23;20458;-66
2021/04/25 02:32:50;;;;;;;4.83;1.90;;;7.60;99.90;;;;;;6071576;23;20522;-66
2021/04/25 02:35:18;;;;;;;3.00;1.80;;;7.60;99.90;;;;;;6071624;23;20431;-67
2021/04/25 02:37:45;;;;;;;2.70;1.50;;;7.50;99.90;;;;;;6071678;23;20832;-67
2021/04/25 02:40:14;;;;;;;2.17;1.97;;;7.50;99.90;;;;;;6071314;23;20428;-66
2021/04/25 02:42:43;;;;;;;2.40;1.83;;;7.50;99.90;;;;;;6071799;23;20479;-67
2021/04/25 02:45:15;;;;;;;2.30;1.70;;;7.40;99.90;;;;;;6071822;23;20432;-66
2021/04/25 02:47:43;;;;;;;2.63;1.67;;;7.30;99.90;;;;;;6072857;23;20437;-67
2021/04/25 02:50:10;;;;;;;3.03;1.70;;;7.30;99.90;;;;;;6073999;23;20487;-66
2021/04/25 02:52:36;;;;;;;2.17;1.97;;;7.30;99.90;;;;;;6072182;23;20707;-66
2021/04/25 02:55:04;;;;;;;3.10;1.67;;;7.20;99.90;;;;;;6071683;23;20420;-66
2021/04/25 02:57:30;;;;;;;2.20;1.60;;;7.20;99.90;;;;;;6071308;23;20424;-66
2021/04/25 02:59:59;;;;;;;6.00;1.63;;;7.20;99.90;;;;;;6071579;23;20432;-66
2021/04/25 03:02:25;;;;;;;3.27;2.00;;;7.10;99.90;;;;;;6072270;23;20724;-67
2021/04/25 03:04:52;;;;;;;1.90;1.80;;;7.10;99.90;;;;;;6071069;23;20431;-66
2021/04/25 03:07:18;;;;;;;5.93;1.90;;;7.00;99.90;;;;;;6071323;23;20479;-66
2021/04/25 03:09:45;;;;;;;4.80;2.00;;;7.10;99.90;;;;;;6071378;23;20425;-66
2021/04/25 03:12:26;;;;;;;2.27;1.73;;;7.00;99.90;;;;;;6070997;23;20416;-66
2021/04/25 03:14:52;;;;;;;2.23;1.90;;;7.10;99.90;;;;;;6071208;23;20424;-66
2021/04/25 03:17:19;;;;;;;3.70;1.80;;;7.10;99.90;;;;;;6072304;23;20432;-66
2021/04/25 03:19:46;;;;;;;4.37;1.83;;;7.10;99.90;;;;;;6071260;23;20420;-65
2021/04/25 03:22:13;;;;;;;3.67;2.20;;;7.10;99.90;;;;;;6071102;23;20464;-66
2021/04/25 03:24:39;;;;;;;2.87;1.90;;;7.20;99.90;;;;;;6071099;23;20456;-67
2021/04/25 03:27:06;;;;;;;4.03;1.80;;;7.20;99.90;;;;;;6071451;23;20420;-66
2021/04/25 03:29:47;;;;;;;3.77;3.23;;;7.30;99.90;;;;;;6074246;23;20424;-65
2021/04/25 03:32:13;;;;;;;5.40;4.13;;;7.40;99.90;;;;;;6099568;23;20400;-66
2021/04/25 03:34:40;;;;;;;6.43;4.50;;;7.40;99.90;;;;;;6099610;23;20430;-66
2021/04/25 03:37:06;;;;;;;6.50;5.10;;;7.40;99.90;;;;;;6099542;23;20420;-66
2021/04/25 03:39:33;;;;;;;7.70;6.13;;;7.30;99.90;;;;;;6099392;23;20430;-66
2021/04/25 03:42:00;;;;;;;8.50;5.80;;;7.20;99.90;;;;;;6099323;23;21038;-66
2021/04/25 03:44:26;;;;;;;8.63;5.93;;;7.10;99.90;;;;;;6099655;23;20436;-67
2021/04/25 03:46:55;;;;;;;6.43;5.30;;;7.00;99.90;;;;;;6099521;23;20419;-66
2021/04/25 03:49:33;;;;;;;8.77;5.70;;;6.90;99.90;;;;;;6099160;23;20478;-67
2021/04/25 03:52:09;;;;;;;7.17;5.53;;;6.80;99.90;;;;;;6099584;23;20423;-67
2021/04/25 03:54:37;;;;;;;7.67;5.27;;;6.70;99.90;;;;;;6099397;23;20419;-66
2021/04/25 03:57:05;;;;;;;7.13;4.27;;;6.60;99.90;;;;;;6098702;23;20419;-66
2021/04/25 03:59:31;;;;;;;4.57;3.57;;;6.50;99.90;;;;;;6098964;23;20431;-67
2021/04/25 04:01:57;;;;;;;4.87;3.80;;;6.50;99.90;;;;;;6099271;23;20442;-66
2021/04/25 04:04:24;;;;;;;5.50;3.60;;;6.40;99.90;;;;;;6099259;23;20427;-67
2021/04/25 04:06:50;;;;;;;5.03;4.00;;;6.40;99.90;;;;;;6100152;23;20893;-66
2021/04/25 04:09:17;;;;;;;5.90;3.50;;;6.40;99.90;;;;;;6100836;23;20419;-67
2021/04/25 04:11:45;;;;;;;7.03;3.83;;;6.30;99.90;;;;;;6100737;23;20719;-67
2021/04/25 04:14:11;;;;;;;5.60;4.10;;;6.30;99.90;;;;;;6099705;23;20455;-66
2021/04/25 04:16:38;;;;;;;5.50;3.60;;;6.30;99.90;;;;;;6099039;23;20888;-66
2021/04/25 04:19:04;;;;;;;5.80;3.33;;;6.30;99.90;;;;;;6099355;23;20423;-65
2021/04/25 04:21:30;;;;;;;4.20;3.20;;;6.30;99.90;;;;;;6099140;23;20460;-65
2021/04/25 04:23:56;;;;;;;4.63;3.23;;;6.40;99.90;;;;;;6099212;23;20415;-66
2021/04/25 04:26:23;;;;;;;4.43;4.00;;;6.40;99.90;;;;;;6099116;23;20420;-65
2021/04/25 04:28:50;;;;;;;3.60;3.30;;;6.40;99.90;;;;;;6099413;23;20419;-66
2021/04/25 04:31:16;;;;;;;4.03;3.33;;;6.40;99.90;;;;;;6081154;23;20938;-66
2021/04/25 04:33:42;;;;;;;5.93;3.57;;;6.50;99.90;;;;;;6070790;23;20444;-66
2021/04/25 04:36:16;;;;;;;3.93;3.53;;;6.50;99.90;;;;;;6070666;23;20420;-66
2021/04/25 04:38:42;;;;;;;6.93;3.37;;;6.50;99.90;;;;;;6070794;23;20416;-66
2021/04/25 04:41:08;;;;;;;4.73;3.37;;;6.50;99.90;;;;;;6070664;23;20499;-66
2021/04/25 04:43:34;;;;;;;5.33;3.13;;;6.40;99.90;;;;;;6070730;23;20417;-67
2021/04/25 04:46:01;;;;;;;4.30;3.10;;;6.40;99.90;;;;;;6071395;23;20420;-66
2021/04/25 04:48:28;;;;;;;5.77;2.97;;;6.30;99.90;;;;;;6071046;23;20799;-67
2021/04/25 04:50:54;;;;;;;5.60;3.37;;;6.40;99.90;;;;;;6071848;23;20431;-67
2021/04/25 04:53:20;;;;;;;5.50;3.60;;;6.40;99.90;;;;;;6070605;23;20440;-66
2021/04/25 04:55:46;;;;;;;5.10;3.50;;;6.50;99.90;;;;;;6070589;23;20480;-66
2021/04/25 04:58:13;;;;;;;4.03;3.13;;;6.50;99.90;;;;;;6070575;23;20523;-66
2021/04/25 05:00:39;;;;;;;6.70;2.90;;;6.60;99.90;;;;;;6070431;23;20424;-66
2021/04/25 05:03:30;;;;;;;3.30;3.00;;;6.70;99.90;;;;;;6070617;23;20429;-66
2021/04/25 05:05:58;;;;;;;5.40;3.70;;;6.70;99.90;;;;;;6070284;23;20887;-66
2021/04/25 05:08:27;;;;;;;3.67;2.97;;;6.70;99.90;;;;;;6071050;23;20420;-66
2021/04/25 05:10:53;;;;;;;6.20;3.80;;;6.80;99.90;;;;;;6071112;23;20451;-66
2021/04/25 05:13:20;;;;;;;3.50;3.00;;;6.90;99.90;;;;;;6070527;23;20455;-66
2021/04/25 05:15:49;;;;;;;7.13;3.63;;;6.90;99.90;;;;;;6070249;23;20431;-66
2021/04/25 05:18:15;;;;;;;5.93;3.20;;;6.90;99.90;;;;;;6070213;23;20420;-66
2021/04/25 05:20:45;;;;;;;5.47;3.13;;;7.00;99.90;;;;;;6069880;23;20420;-66
2021/04/25 05:23:11;;;;;;;3.37;2.67;;;7.00;99.90;;;;;;6069736;23;20417;-66
2021/04/25 05:25:37;;;;;;;4.70;3.33;;;7.10;99.90;;;;;;6070086;23;20424;-66
2021/04/25 05:28:04;;;;;;;4.00;3.00;;;7.20;99.90;;;;;;6070703;23;20446;-67
2021/04/25 05:30:31;;;;;;;3.97;2.70;;;7.20;99.90;;;;;;6070246;23;20930;-66
2021/04/25 05:32:57;;;;;;;3.13;2.80;;;7.30;99.90;;;;;;6071743;23;20444;-66
2021/04/25 05:35:23;;;;;;;4.43;2.80;;;7.30;99.90;;;;;;6070409;23;20420;-65
2021/04/25 05:37:50;;;;;;;3.17;2.70;;;7.40;99.90;;;;;;6070826;23;20494;-66
2021/04/25 05:40:16;;;;;;;5.03;3.17;;;7.40;99.90;;;;;;6071380;23;20428;-66
2021/04/25 05:42:43;;;;;;;5.43;3.20;;;7.50;99.90;;;;;;6071412;23;20416;-66
2021/04/25 05:45:20;;;;;;;4.20;3.00;;;7.50;99.90;;;;;;6071815;23;20424;-66
2021/04/25 05:47:48;;;;;;;4.70;3.13;;;7.60;99.90;;;;;;6071826;23;20467;-67
2021/04/25 05:50:14;;;;;;;4.33;2.83;;;7.60;99.90;;;;;;6071802;23;20420;-66
2021/04/25 05:52:41;;;;;;;4.63;2.67;;;7.60;99.90;;;;;;6071467;23;20440;-67
2021/04/25 05:55:09;;;;;;;3.30;2.53;;;7.70;99.90;;;;;;6071102;23;20420;-67
2021/04/25 05:57:37;;;;;;;4.30;2.93;;;7.80;99.90;;;;;;6071762;23;20421;-67
2021/04/25 06:00:06;;;;;;;7.33;2.43;;;7.80;99.90;;;;;;6071570;23;20420;-66
2021/04/25 06:02:32;;;;;;;3.30;2.63;;;7.80;99.90;;;;;;6071474;23;20451;-66
2021/04/25 06:04:58;;;;;;;6.00;2.87;;;7.80;99.90;;;;;;6081064;23;20412;-66
2021/04/25 06:07:24;;;;;;;2.77;2.50;;;7.90;99.90;;;;;;6072390;23;20714;-65
2021/04/25 06:09:51;;;;;;;2.97;2.47;;;7.90;99.90;;;;;;6072797;23;20416;-67
2021/04/25 06:12:18;;;;;;;5.20;2.77;;;7.90;99.90;;;;;;6071832;23;20421;-66
2021/04/25 06:14:48;;;;;;;3.83;2.73;;;7.90;99.90;;;;;;6072144;23;20425;-66
2021/04/25 06:17:16;;;;;;;5.67;2.53;;;8.00;99.90;;;;;;6071490;23;20425;-67
2021/04/25 06:19:43;;;;;;;2.77;2.30;;;8.00;99.90;;;;;;6071397;23;20886;-67
2021/04/25 06:22:13;;;;;;;4.57;2.57;;;8.10;99.90;;;;;;6071257;23;20431;-67
2021/04/25 06:24:41;;;;;;;3.63;2.30;;;8.10;99.90;;;;;;6071135;23;20877;-67
2021/04/25 06:27:08;;;;;;;2.43;2.13;;;8.20;99.90;;;;;;6071597;23;20421;-66
2021/04/25 06:29:38;;;;;;;2.87;2.27;;;8.20;99.90;;;;;;6071259;23;20870;-66
2021/04/25 06:32:05;;;;;;;2.40;2.20;;;8.30;99.90;;;;;;6070719;23;20499;-67
2021/04/25 06:34:31;;;;;;;4.00;2.57;;;8.30;99.90;;;;;;6071359;23;20925;-66
2021/04/25 06:36:58;;;;;;;2.67;2.30;;;8.40;99.90;;;;;;6071398;23;20435;-68
2021/04/25 06:39:24;;;;;;;5.20;2.50;;;8.50;99.90;;;;;;6071730;23;20684;-66
2021/04/25 06:41:50;;;;;;;2.97;2.20;;;8.50;99.90;;;;;;6072105;23;20671;-67
2021/04/25 06:44:16;;;;;;;3.00;2.70;;;8.60;99.90;;;;;;6071258;23;20424;-68
2021/04/25 06:46:43;;;;;;;3.10;2.70;;;8.70;99.90;;;;;;6070915;23;20420;-67
2021/04/25 06:49:09;;;;;;;4.70;2.07;;;8.80;99.90;;;;;;6071001;23;20432;-66
2021/04/25 06:51:36;;;;;;;7.80;2.60;;;8.90;99.90;;;;;;6071331;23;20428;-66
2021/04/25 06:54:02;;;;;;;2.60;2.20;;;8.90;99.90;;;;;;6071066;23;20455;-66
2021/04/25 06:56:29;;;;;;;3.07;2.63;;;9.00;99.90;;;;;;6070674;23;20896;-66
2021/04/25 06:58:55;;;;;;;2.40;2.20;;;9.00;99.90;;;;;;6071183;23;20431;-67
2021/04/25 07:01:21;;;;;;;5.53;1.80;;;9.10;99.90;;;;;;6070699;23;20456;-66
2021/04/25 07:03:49;;;;;;;3.80;2.17;;;9.20;99.90;;;;;;6071672;23;20427;-67
2021/04/25 07:06:17;;;;;;;3.07;2.10;;;9.20;99.90;;;;;;6070572;23;20909;-67
2021/04/25 07:08:43;;;;;;;2.23;2.03;;;9.20;99.90;;;;;;6070821;23;20427;-66
2021/04/25 07:11:09;;;;;;;3.90;2.63;;;9.30;99.90;;;;;;6071177;23;20431;-68
2021/04/25 07:13:36;;;;;;;5.10;2.60;;;9.30;99.90;;;;;;6071828;23;20561;-70
2021/04/25 07:16:04;;;;;;;4.80;2.10;;;9.40;99.90;;;;;;6071225;23;20666;-70
2021/04/25 07:18:30;;;;;;;2.17;1.90;;;9.50;99.90;;;;;;6072159;23;20420;-71
2021/04/25 07:20:58;;;;;;;2.20;1.63;;;9.60;99.90;;;;;;6072240;23;20421;-69
2021/04/25 07:23:30;;;;;;;2.43;1.77;;;9.60;99.90;;;;;;6071199;23;20592;-70
2021/04/25 07:25:57;;;;;;;3.63;1.40;;;9.60;99.90;;;;;;6071128;23;20723;-68
2021/04/25 07:28:24;;;;;;;3.80;1.63;;;9.60;99.90;;;;;;6071981;23;20428;-70
2021/04/25 07:30:51;;;;;;;4.03;1.80;;;9.60;99.90;;;;;;6073792;23;20448;-72
2021/04/25 07:33:18;;;;;;;6.10;1.50;;;9.60;99.90;;;;;;6071883;23;20448;-68
2021/04/25 07:35:45;;;;;;;1.80;1.70;;;9.70;99.90;;;;;;6073835;23;20420;-67
2021/04/25 07:38:12;;;;;;;1.87;1.30;;;9.70;99.90;;;;;;6073694;23;20420;-67
2021/04/25 07:40:39;;;;;;;4.83;1.80;;;9.70;99.60;;;;;;6072378;23;20564;-67
2021/04/25 07:43:07;;;;;;;3.87;1.53;;;9.70;99.60;;;;;;6071820;23;20718;-65
2021/04/25 07:45:34;;;;;;;2.80;1.23;;;9.60;99.60;;;;;;6069724;23;20420;-67
2021/04/25 07:48:03;;;;;;;4.80;1.93;;;9.60;99.60;;;;;;6070657;23;20425;-67
2021/04/25 07:50:30;;;;;;;3.10;2.10;;;9.60;99.80;;;;;;6071831;23;20699;-67
2021/04/25 07:52:58;;;;;;;4.23;2.00;;;9.60;99.90;;;;;;6071481;23;20444;-67
2021/04/25 07:55:25;;;;;;;8.77;2.90;;;9.70;99.90;;;;;;6071179;23;20507;-68
2021/04/25 07:57:51;;;;;;;2.03;1.80;;;9.70;99.90;;;;;;6070409;23;20643;-67
2021/04/25 08:00:18;;;;;;;2.50;2.20;;;9.80;99.90;;;;;;6070471;23;20456;-67
2021/04/25 08:02:47;;;;;;;6.13;2.93;;;9.80;99.90;;;;;;6069752;23;20416;-66
2021/04/25 08:05:14;;;;;;;3.40;2.13;;;9.90;99.90;;;;;;6070421;23;20432;-70
2021/04/25 08:07:40;;;;;;;1.80;1.50;;;9.90;99.90;;;;;;6070381;23;20424;-69
2021/04/25 08:10:08;;;;;;;2.10;1.57;;;9.90;99.90;;;;;;6070187;23;20420;-70
2021/04/25 08:12:38;;;;;;;2.23;1.63;;;9.90;99.90;;;;;;6069930;23;20480;-69
2021/04/25 08:15:05;;;;;;;3.80;3.00;;;9.90;99.90;;;;;;6071149;23;20727;-69
2021/04/25 08:17:31;;;;;;;5.63;1.77;;;9.80;99.90;;;;;;6070996;23;20427;-67
2021/04/25 08:19:58;;;;;;;4.47;2.33;;;9.80;99.90;;;;;;6070277;23;20691;-68
2021/04/25 08:22:24;;;;;;;2.50;1.73;;;9.80;99.90;;;;;;6070328;23;20566;-68
2021/04/25 08:24:50;;;;;;;6.17;3.10;;;9.80;99.90;;;;;;6070143;23;20425;-69
2021/04/25 08:27:16;;;;;;;3.27;2.03;;;9.80;99.90;;;;;;6071082;23;20430;-68
2021/04/25 08:29:43;;;;;;;5.43;2.43;;;9.80;99.90;;;;;;6070503;23;20427;-69
2021/04/25 08:32:09;;;;;;;6.93;2.00;;;9.70;99.90;;;;;;6069897;23;20447;-66
2021/04/25 08:34:36;;;;;;;3.23;1.90;;;9.60;99.90;;;;;;6070273;23;20448;-66
2021/04/25 08:37:02;;;;;;;3.03;1.90;;;9.60;99.90;;;;;;6069884;23;20870;-67
2021/04/25 08:39:28;;;;;;;2.77;1.97;;;9.50;99.90;;;;;;6070663;23;20420;-67
2021/04/25 08:41:56;;;;;;;5.97;2.80;;;9.40;99.90;;;;;;6070227;23;20424;-68
2021/04/25 08:44:22;;;;;;;13.83;2.17;;;9.40;99.90;;;;;;6070778;23;20416;-68
2021/04/25 08:46:51;;;;;;;3.40;1.67;;;9.20;99.90;;;;;;6069684;23;20420;-69
2021/04/25 08:49:22;;;;;;;2.73;1.90;;;9.10;99.90;;;;;;6069991;23;20420;-67
2021/04/25 08:51:49;;;;;;;2.10;1.80;;;9.10;99.90;;;;;;6070352;23;20456;-66
2021/04/25 08:54:16;;;;;;;3.10;2.13;;;9.20;99.90;;;;;;6069797;23;20775;-68
2021/04/25 08:56:43;;;;;;;2.87;2.10;;;9.30;99.90;;;;;;6069903;23;20523;-67
2021/04/25 08:59:09;;;;;;;2.53;1.90;;;9.30;99.90;;;;;;6070161;23;20479;-67
2021/04/25 09:01:35;;;;;;;1.57;1.40;;;9.30;99.90;;;;;;6069969;23;20431;-68
2021/04/25 09:04:05;;;;;;;1.73;1.60;;;9.40;99.90;;;;;;6070486;23;20427;-67
2021/04/25 09:07:00;;;;;;;6.80;1.80;;;9.30;99.90;;;;;;6069833;23;20424;-67
2021/04/25 09:09:46;;;;;;;1.83;1.73;;;9.20;99.90;;;;;;6069930;23;20431;-65
2021/04/25 09:12:29;;;;;;;3.80;1.83;;;9.10;99.90;;;;;;6070657;23;20704;-67
2021/04/25 09:15:23;;;;;;;2.77;1.60;;;9.10;99.90;;;;;;6072401;23;20396;-67
2021/04/25 09:17:50;;;;;;;2.50;1.93;;;9.10;99.90;;;;;;6073316;23;20467;-67
2021/04/25 09:20:18;;;;;;;2.63;2.43;;;9.10;99.90;;;;;;6072773;23;20427;-67
2021/04/25 09:22:47;;;;;;;2.73;1.87;;;9.00;99.90;;;;;;6073463;23;20416;-70
2021/04/25 09:25:17;;;;;;;5.90;3.80;;;9.00;99.90;;;;;;6074628;23;20424;-67
2021/04/25 09:27:47;;;;;;;4.57;2.10;;;9.00;99.90;;;;;;6081882;23;20419;-67
2021/04/25 09:30:22;;;;;;;3.30;1.53;;;9.10;99.90;;;;;;6071726;23;20475;-66
2021/04/25 09:32:48;;;;;;;3.77;1.77;;;9.10;99.90;;;;;;6071591;23;20914;-67
2021/04/25 09:35:16;;;;;;;2.57;1.83;;;9.10;99.90;;;;;;6072159;23;20420;-66
2021/04/25 09:37:49;;;;;;;4.20;3.03;;;9.10;99.90;;;;;;6072238;23;20488;-68
2021/04/25 09:40:17;;;;;;;5.13;2.03;;;9.00;99.90;;;;;;6072424;23;20491;-66
2021/04/25 09:42:58;;;;;;;3.13;1.97;;;8.90;99.90;;;;;;6072405;23;20431;-66
2021/04/25 09:45:26;;;;;;;4.50;2.50;;;8.90;99.90;;;;;;6071467;23;20420;-66
2021/04/25 09:47:53;;;;;;;2.90;1.90;;;8.90;99.90;;;;;;6072177;23;20759;-66
2021/04/25 09:50:19;;;;;;;6.40;2.43;;;9.10;99.90;;;;;;6073115;23;20424;-66
2021/04/25 09:52:51;;;;;;;2.90;1.90;;;9.30;99.90;;;;;;6072854;23;20424;-66
2021/04/25 09:55:24;;;;;;;3.77;2.20;;;9.40;99.90;;;;;;6072070;23;20415;-67
2021/04/25 09:57:52;;;;;;;2.03;1.83;;;9.60;99.90;;;;;;6072218;23;20416;-66
2021/04/25 10:00:21;;;;;;;2.50;2.30;;;9.70;99.90;;;;;;6071545;23;20889;-66
2021/04/25 10:03:05;;;;;;;2.70;2.10;;;9.80;99.90;;;;;;6071335;23;20877;-66
2021/04/25 10:05:33;;;;;;;2.53;2.00;;;9.90;99.90;;;;;;6071372;23;20451;-66
2021/04/25 10:08:04;;;;;;;1.93;1.53;;;10.00;99.90;;;;;;6071667;23;20435;-66
2021/04/25 10:10:30;;;;;;;2.40;1.50;;;10.10;99.90;;;;;;6072001;23;20408;-67
2021/04/25 10:12:57;;;;;;;3.00;2.20;;;10.00;99.90;;;;;;6072172;23;20455;-65
2021/04/25 10:15:24;;;;;;;3.00;2.00;;;10.10;99.90;;;;;;6071143;23;20785;-66
2021/04/25 10:17:54;;;;;;;3.57;1.67;;;10.30;99.90;;;;;;6071709;23;20771;-70
2021/04/25 10:20:21;;;;;;;4.57;2.07;;;10.40;99.90;;;;;;6071820;23;20404;-69
2021/04/25 10:22:50;;;;;;;2.33;1.83;;;10.50;99.90;;;;;;6074023;23;20420;-70
2021/04/25 10:25:19;;;;;;;3.17;1.60;;;10.60;99.90;;;;;;6070915;23;20420;-69
2021/04/25 10:27:58;;;;;;;2.93;2.17;;;10.50;99.90;;;;;;6071656;23;20484;-69
2021/04/25 10:30:31;;;;;;;3.40;1.63;;;10.50;99.90;;;;;;6071411;23;20824;-69
2021/04/25 10:32:57;;;;;;;2.47;1.60;;;10.60;99.90;;;;;;6071501;23;20433;-70
2021/04/25 10:35:28;;;;;;;3.33;2.50;;;10.60;99.90;;;;;;6072259;23;20420;-69
2021/04/25 10:37:57;;;;;;;1.63;1.50;;;10.70;99.90;;;;;;6072073;23;20491;-70
2021/04/25 10:40:29;;;;;;;2.67;1.60;;;10.80;99.90;;;;;;6070937;23;20452;-70
2021/04/25 10:42:58;;;;;;;2.40;1.73;;;11.00;99.70;;;;;;6071735;23;20405;-69
2021/04/25 10:45:35;;;;;;;2.70;2.00;;;11.00;98.70;;;;;;6071894;23;20431;-69
2021/04/25 10:48:51;;;;;;;2.33;1.60;;;11.00;97.40;;;;;;6081166;23;20446;-69
2021/04/25 10:51:18;;;;;;;2.40;1.70;;;11.00;96.50;;;;;;6070953;23;20431;-70
2021/04/25 10:53:47;;;;;;;1.70;1.60;;;11.00;96.80;;;;;;6071135;23;20450;-70
2021/04/25 10:56:33;;;;;;;3.37;2.43;;;11.10;97.40;;;;;;6071987;23;20869;-69
2021/04/25 10:59:27;;;;;;;3.20;1.83;;;11.40;97.10;;;;;;6080551;23;20523;-69
2021/04/25 11:01:58;;;;;;;2.20;1.80;;;11.60;95.90;;;;;;6072243;23;20658;-69
2021/04/25 11:05:04;;;;;;;1.70;1.30;;;11.60;95.50;;;;;;6081542;23;20485;-70
2021/04/25 11:07:40;;;;;;;2.40;1.50;;;11.60;95.60;;;;;;6071346;23;20408;-69
2021/04/25 11:10:08;;;;;;;2.67;1.60;;;11.50;96.00;;;;;;6070807;23;20906;-70
2021/04/25 11:12:44;;;;;;;1.47;1.17;;;11.70;95.90;;;;;;6071180;23;20480;-70
2021/04/25 11:15:40;;;;;;;1.60;1.40;;;11.80;96.00;;;;;;6070797;23;20500;-69
2021/04/25 11:18:40;;;;;;;1.40;1.20;;;12.10;95.90;;;;;;6071330;23;20423;-69
2021/04/25 11:21:49;;;;;;;6.80;1.67;;;12.30;93.90;;;;;;6070656;23;20907;-69
2021/04/25 11:24:35;;;;;;;2.73;1.30;;;12.90;93.90;;;;;;6071123;23;20412;-69
2021/04/25 11:27:04;;;;;;;1.80;1.17;;;14.10;92.40;;;;;;6071026;23;20415;-69
2021/04/25 11:29:51;;;;;;;2.20;1.47;;;14.70;90.70;;;;;;6071264;23;20440;-69
2021/04/25 11:32:28;;;;;;;2.80;1.00;;;15.20;88.30;;;;;;6070305;23;20431;-69
2021/04/25 11:35:12;;;;;;;2.60;1.87;;;15.20;85.40;;;;;;6071200;23;20439;-71
2021/04/25 11:37:39;;;;;;;2.43;0.90;;;14.90;81.20;;;;;;6048267;23;20483;-69
2021/04/25 11:40:08;;;;;;;2.40;1.00;;;14.40;78.20;;;;;;6072667;23;20428;-68
2021/04/25 11:42:37;;;;;;;2.30;1.43;;;13.80;68.90;;;;;;6072845;23;20777;-71
2021/04/25 11:45:12;;;;;;;3.27;0.80;;;13.20;63.30;;;;;;6072488;23;20416;-72
2021/04/25 11:47:45;;;;;;;1.10;0.87;;;12.80;62.40;;;;;;6071702;23;20404;-69
2021/04/25 11:50:12;;;;;;;1.13;0.80;;;12.90;61.80;;;;;;6071156;23;20850;-69
2021/04/25 11:52:39;;;;;;;1.50;1.13;;;13.70;62.10;;;;;;6070810;23;20439;-70
2021/04/25 11:55:07;;;;;;;2.93;1.00;;;14.80;60.10;;;;;;6070906;23;20444;-69
2021/04/25 11:57:35;;;;;;;1.20;0.90;;;15.60;58.10;;;;;;6072470;23;20428;-69
2021/04/25 12:00:09;;;;;;;2.00;0.80;;;16.20;56.30;;;;;;6073252;23;20420;-69
2021/04/25 12:02:36;;;;;;;1.93;0.90;;;15.70;54.10;;;;;;6072117;23;20412;-71
2021/04/25 12:05:05;;;;;;;1.70;0.90;;;14.90;54.40;;;;;;6072181;23;20427;-69
2021/04/25 12:07:37;;;;;;;1.30;0.90;;;14.20;54.70;;;;;;6070904;23;20420;-68
2021/04/25 12:10:13;;;;;;;1.53;1.00;;;13.80;55.40;;;;;;6072378;23;20420;-73
2021/04/25 12:13:00;;;;;;;1.00;0.80;;;13.50;55.40;;;;;;6071652;23;20409;-69
2021/04/25 12:15:28;;;;;;;1.50;0.90;;;13.20;55.10;;;;;;6071233;23;20491;-71
2021/04/25 12:17:58;;;;;;;1.63;0.90;;;13.20;55.20;;;;;;6070149;23;20783;-71
2021/04/25 12:20:26;;;;;;;1.00;0.70;;;13.30;55.30;;;;;;6071572;23;20443;-69
2021/04/25 12:22:53;;;;;;;3.23;1.00;;;13.70;55.30;;;;;;6070899;23;20420;-70
2021/04/25 12:25:20;;;;;;;2.40;0.90;;;14.30;54.90;;;;;;6070818;23;20420;-69
2021/04/25 12:27:52;;;;;;;1.70;1.00;;;14.80;53.70;;;;;;6070704;23;20724;-66
2021/04/25 12:30:23;;;;;;;1.00;0.70;;;14.90;52.10;;;;;;6071811;23;20475;-68
2021/04/25 12:33:05;;;;;;;1.90;0.70;;;15.10;51.70;;;;;;6070590;23;20491;-69
2021/04/25 12:35:32;;;;;;;1.93;1.00;;;15.20;50.90;;;;;;6071455;23;20722;-67
2021/04/25 12:37:58;;;;;;;1.00;0.60;;;15.30;50.70;;;;;;6070157;23;20456;-69
2021/04/25 12:40:30;;;;;;;1.53;0.70;;;16.10;50.70;;;;;;6070259;23;20432;-68
2021/04/25 12:43:20;;;;;;;3.50;1.00;;;17.00;48.70;;;;;;6070034;23;20696;-67
2021/04/25 12:45:48;;;;;;;1.03;0.77;;;17.10;46.30;;;;;;5990270;23;20451;-68
2021/04/25 12:48:36;;;;;;;1.60;0.83;;;16.90;45.20;;;;;;6069949;23;20411;-68
2021/04/25 12:51:05;;;;;;;1.30;0.80;;;16.50;45.10;;;;;;6070100;23;20400;-68
2021/04/25 12:53:36;;;;;;;3.73;0.70;;;16.30;45.50;;;;;;6070089;23;20444;-68
2021/04/25 12:56:26;;;;;;;1.20;1.00;;;16.40;46.40;;;;;;6070291;23;20414;-68
2021/04/25 12:59:01;;;;;;;1.00;0.70;;;16.30;45.90;;;;;;6070443;23;20818;-68
2021/04/25 13:01:28;;;;;;;1.40;0.60;;;16.00;46.00;;;;;;6070133;23;20451;-68
2021/04/25 13:03:56;;;;;;;1.30;0.80;;;15.70;45.30;;;;;;6070548;23;20883;-69
2021/04/25 13:06:27;;;;;;;1.10;0.70;;;15.20;45.30;;;;;;6071177;23;20945;-67
2021/04/25 13:08:56;;;;;;;1.63;0.80;;;14.80;45.10;;;;;;6071660;23;20421;-67
2021/04/25 13:11:40;;;;;;;1.43;1.20;;;14.40;45.70;;;;;;6070586;23;20420;-67
2021/04/25 13:14:07;;;;;;;1.20;0.70;;;14.30;45.70;;;;;;6070590;23;20515;-66
2021/04/25 13:16:34;;;;;;;1.20;0.90;;;14.80;46.90;;;;;;6070935;23;20500;-67
2021/04/25 13:19:02;;;;;;;2.13;1.00;;;16.20;46.90;;;;;;6070222;23;20491;-67
2021/04/25 13:21:42;;;;;;;2.50;1.10;;;17.60;43.50;;;;;;6070002;23;20420;-68
2021/04/25 13:24:13;;;;;;;1.57;0.90;;;18.00;41.70;;;;;;6069342;23;20426;-67
2021/04/25 13:26:43;;;;;;;1.60;0.73;;;17.60;40.90;;;;;;6069567;23;20423;-66
2021/04/25 13:29:15;;;;;;;1.50;1.10;;;16.90;40.20;;;;;;6070662;23;20531;-67
2021/04/25 13:31:42;;;;;;;3.27;1.00;;;15.90;40.20;;;;;;6069896;23;20467;-66
2021/04/25 13:34:13;;;;;;;1.03;0.70;;;15.30;40.10;;;;;;6070457;23;20444;-67
2021/04/25 13:36:40;;;;;;;1.50;0.70;;;14.70;40.50;;;;;;6071919;23;20436;-67